Time;durP1;ratioP1;P1;durP2;ratioP2;P2;SDS_P1;SDS_P2;PMS_P1;PMS_P2;Temp;Humidity;BMP_temperature;BMP_pressure;BME280_temperature;BME280_humidity;BME280_pressure;Samples;Min_cycle;Max_cycle;Signal;HPM_P1;HPM_P2
2024/03/13 00:02:24;;;;;;;80.90;65.90;;;;;;;10.91;63.49;100340.40;110963;1273;21867;-76
2024/03/13 00:05:10;;;;;;;79.80;66.00;;;;;;;10.89;63.45;100341.90;110976;1273;22343;-75
2024/03/13 00:08:26;;;;;;;84.10;65.60;;;;;;;10.88;63.31;100346.20;110630;1277;21850;-74
2024/03/13 00:11:19;;;;;;;82.00;65.30;;;;;;;10.87;63.45;100335.36;110603;1269;21785;-74
2024/03/13 00:13:55;;;;;;;78.70;61.30;;;;;;;10.94;63.03;100334.81;110608;1277;21900;-74
2024/03/13 00:16:45;;;;;;;80.40;64.60;;;;;;;10.99;62.84;100330.27;110550;1277;21853;-74
2024/03/13 00:19:19;;;;;;;78.70;62.60;;;;;;;11.01;62.91;100328.53;110571;1277;21928;-74
2024/03/13 00:21:48;;;;;;;74.80;62.50;;;;;;;11.05;62.74;100328.96;110194;1281;21978;-75
2024/03/13 00:24:19;;;;;;;72.90;61.30;;;;;;;11.06;62.76;100337.37;110182;1281;21843;-74
2024/03/13 00:26:50;;;;;;;74.50;62.20;;;;;;;11.06;62.90;100343.19;110387;1275;21828;-73
2024/03/13 00:29:20;;;;;;;74.20;63.80;;;;;;;11.07;62.98;100348.39;110706;1275;22409;-74
2024/03/13 00:31:52;;;;;;;85.00;64.80;;;;;;;11.08;62.71;100351.16;110729;1267;21800;-74
2024/03/13 00:34:23;;;;;;;79.50;64.70;;;;;;;11.07;62.73;100355.92;110827;1275;21890;-73
2024/03/13 00:36:57;;;;;;;79.50;62.40;;;;;;;11.07;62.78;100354.54;110739;1273;22305;-74
2024/03/13 00:39:26;;;;;;;83.30;66.00;;;;;;;11.08;62.44;100354.47;110575;1275;21791;-73
2024/03/13 00:41:59;;;;;;;83.70;67.10;;;;;;;11.10;62.45;100349.58;110386;1280;21863;-73
2024/03/13 00:44:31;;;;;;;89.20;66.70;;;;;;;11.11;62.53;100347.93;110385;1280;22266;-74
2024/03/13 00:47:03;;;;;;;81.30;68.00;;;;;;;11.12;62.40;100348.06;110405;1280;21870;-74
2024/03/13 00:49:33;;;;;;;78.90;68.10;;;;;;;11.12;62.32;100343.84;110362;1280;21903;-73
2024/03/13 00:52:04;;;;;;;87.00;68.20;;;;;;;11.11;62.45;100343.54;110377;1280;21974;-74
2024/03/13 00:54:35;;;;;;;89.00;69.00;;;;;;;11.09;62.50;100342.05;110221;1280;21830;-75
2024/03/13 00:57:05;;;;;;;89.60;68.50;;;;;;;11.09;62.34;100341.05;110570;1275;21829;-73
2024/03/13 00:59:34;;;;;;;85.10;69.40;;;;;;;11.07;62.39;100343.23;111076;1269;21784;-73
2024/03/13 01:02:09;;;;;;;86.90;69.30;;;;;;;11.08;62.51;100340.58;111315;1269;21883;-73
2024/03/13 01:04:39;;;;;;;81.80;67.50;;;;;;;11.07;62.46;100338.90;111316;1269;22236;-73
2024/03/13 01:07:12;;;;;;;82.00;66.80;;;;;;;11.07;62.26;100343.77;110792;1274;21807;-73
2024/03/13 01:09:53;;;;;;;86.50;64.00;;;;;;;11.06;62.24;100340.33;110835;1274;21919;-73
2024/03/13 01:12:24;;;;;;;83.20;66.60;;;;;;;11.04;62.29;100339.23;110838;1274;22221;-73
2024/03/13 01:14:57;;;;;;;79.80;65.30;;;;;;;11.02;62.29;100340.27;110806;1274;21897;-73
2024/03/13 01:17:32;;;;;;;88.70;66.20;;;;;;;11.02;62.34;100335.88;110880;1273;21900;-74
2024/03/13 01:20:09;;;;;;;78.40;65.20;;;;;;;10.96;62.07;100333.98;110911;1274;21802;-74
2024/03/13 01:22:48;;;;;;;85.90;66.40;;;;;;;10.88;62.11;100333.73;110722;1273;22320;-74
2024/03/13 01:25:26;;;;;;;96.00;74.30;;;;;;;10.67;62.80;100337.31;111074;1269;22112;-74
2024/03/13 01:28:01;;;;;;;95.20;72.10;;;;;;;10.49;63.62;100341.05;111061;1269;22566;-74
2024/03/13 01:30:31;;;;;;;98.20;73.50;;;;;;;10.49;63.49;100340.52;111115;1269;22323;-74
2024/03/13 01:33:06;;;;;;;95.20;76.60;;;;;;;10.43;63.61;100342.73;111662;1269;21826;-74
2024/03/13 01:35:48;;;;;;;97.90;76.20;;;;;;;10.52;63.66;100341.38;110586;1275;21925;-74
2024/03/13 01:38:30;;;;;;;91.60;73.80;;;;;;;10.56;63.35;100341.08;110703;1273;21844;-73
2024/03/13 01:55:13;;;;;;;97.80;80.10;;;;;;;10.59;63.95;100336.64;111467;1269;21874;-73
2024/03/13 01:57:56;;;;;;;97.40;78.50;;;;;;;10.69;63.43;100332.59;111186;1262;21856;-73
2024/03/13 02:03:16;;;;;;;98.80;81.20;;;;;;;10.47;63.51;100329.94;111495;1269;21908;-73
2024/03/13 02:05:49;;;;;;;97.10;80.20;;;;;;;10.35;63.95;100326.04;110900;1273;22515;-73
2024/03/13 02:08:19;;;;;;;98.90;79.20;;;;;;;10.42;63.97;100328.91;110675;1273;22408;-75
2024/03/13 02:10:48;;;;;;;93.60;73.90;;;;;;;10.45;63.88;100327.59;110493;1278;21834;-75
2024/03/13 02:13:18;;;;;;;98.50;78.30;;;;;;;10.40;64.00;100327.75;110199;1281;21910;-73
2024/03/13 02:15:47;;;;;;;94.90;72.60;;;;;;;10.42;63.84;100329.05;110212;1281;22478;-75
2024/03/13 02:18:30;;;;;;;95.50;74.60;;;;;;;10.46;64.06;100331.60;110177;1281;21825;-75
2024/03/13 02:21:00;;;;;;;91.40;74.20;;;;;;;10.46;64.02;100328.39;110185;1281;22062;-73
2024/03/13 02:23:30;;;;;;;81.60;69.40;;;;;;;10.54;63.74;100333.11;110123;1279;21866;-75
2024/03/13 02:26:00;;;;;;;91.20;75.10;;;;;;;10.39;63.90;100331.52;110364;1279;21927;-75
2024/03/13 02:28:37;;;;;;;89.40;73.60;;;;;;;10.42;64.11;100330.42;110599;1274;21941;-75
2024/03/13 02:31:09;;;;;;;112.40;82.30;;;;;;;10.49;64.03;100334.35;110883;1270;21807;-75
2024/03/13 02:33:39;;;;;;;125.40;88.10;;;;;;;10.57;63.70;100333.98;111399;1270;21794;-74
2024/03/13 02:36:08;;;;;;;121.60;88.40;;;;;;;10.59;63.62;100341.41;111288;1270;21816;-74
2024/03/13 02:38:37;;;;;;;117.00;89.10;;;;;;;10.48;63.73;100339.51;111421;1270;21781;-75
2024/03/13 02:41:06;;;;;;;118.90;84.00;;;;;;;10.52;63.99;100343.14;110709;1276;22292;-76
2024/03/13 02:43:39;;;;;;;112.90;85.90;;;;;;;10.58;63.48;100344.85;110666;1276;21838;-74
2024/03/13 02:46:08;;;;;;;115.60;85.90;;;;;;;10.60;63.63;100348.41;110518;1276;21898;-76
2024/03/13 02:48:38;;;;;;;114.10;84.90;;;;;;;10.59;63.42;100353.19;110614;1276;21830;-74
2024/03/13 02:51:11;;;;;;;114.10;84.50;;;;;;;10.56;63.40;100351.47;110641;1276;21955;-73
2024/03/13 02:53:41;;;;;;;103.70;80.10;;;;;;;10.48;63.44;100352.25;110701;1276;21874;-74
2024/03/13 02:56:10;;;;;;;100.40;80.10;;;;;;;10.47;63.76;100352.63;110698;1275;22211;-74
2024/03/13 02:58:44;;;;;;;;;;;;;;;10.51;63.69;100352.17;110878;1270;22344;-74
2024/03/13 03:01:14;;;;;;;105.20;78.80;;;;;;;10.33;64.25;100354.48;111402;1270;21842;-74
2024/03/13 03:03:44;;;;;;;104.60;80.00;;;;;;;10.39;64.06;100353.88;111034;1270;21834;-73
2024/03/13 03:06:15;;;;;;;112.80;84.40;;;;;;;10.48;63.74;100358.55;110575;1275;22048;-74
2024/03/13 03:08:46;;;;;;;111.90;84.10;;;;;;;10.52;63.80;100361.77;110236;1280;21815;-73
2024/03/13 03:11:16;;;;;;;114.10;84.30;;;;;;;10.56;63.63;100365.55;110042;1284;22299;-75
2024/03/13 03:13:48;;;;;;;116.50;87.20;;;;;;;10.60;63.50;100364.81;110028;1284;21850;-75
2024/03/13 03:16:19;;;;;;;111.70;83.90;;;;;;;10.62;63.42;100364.47;109917;1289;21848;-75
2024/03/13 03:18:49;;;;;;;104.90;81.20;;;;;;;10.59;63.49;100364.65;109869;1289;21851;-75
2024/03/13 03:21:19;;;;;;;110.60;82.20;;;;;;;10.62;63.68;100364.45;109710;1293;22267;-74
2024/03/13 03:23:49;;;;;;;103.90;78.10;;;;;;;10.66;63.59;100363.63;109617;1293;21824;-74
2024/03/13 03:26:19;;;;;;;111.10;84.70;;;;;;;10.69;63.43;100363.92;109651;1289;21940;-74
2024/03/13 03:28:49;;;;;;;105.90;80.90;;;;;;;10.71;63.22;100362.08;109860;1286;21932;-75
2024/03/13 03:31:23;;;;;;;114.00;85.60;;;;;;;10.73;63.00;100362.83;110096;1281;21847;-75
2024/03/13 03:33:59;;;;;;;115.90;85.40;;;;;;;10.65;63.65;100362.62;110348;1276;21821;-75
2024/03/13 03:36:45;;;;;;;119.90;86.50;;;;;;;10.62;63.41;100361.30;110165;1280;21838;-75
2024/03/13 03:39:25;;;;;;;115.30;83.60;;;;;;;10.62;63.45;100359.55;110497;1275;21811;-75
2024/03/13 03:42:09;;;;;;;112.70;84.00;;;;;;;10.47;63.72;100358.64;110497;1279;22170;-75
2024/03/13 03:44:39;;;;;;;118.60;85.10;;;;;;;10.45;64.22;100355.23;110545;1279;22419;-75
2024/03/13 03:47:10;;;;;;;122.00;85.50;;;;;;;10.53;64.23;100356.59;110229;1279;21848;-75
2024/03/13 03:49:39;;;;;;;130.40;87.80;;;;;;;10.59;63.92;100357.63;110562;1279;21842;-74
2024/03/13 03:52:09;;;;;;;115.70;83.40;;;;;;;10.62;63.68;100362.85;110232;1279;21894;-75
2024/03/13 03:54:39;;;;;;;122.30;85.70;;;;;;;10.62;63.76;100363.36;110764;1274;21925;-74
2024/03/13 03:57:10;;;;;;;122.30;83.30;;;;;;;10.64;63.86;100361.66;110775;1274;21911;-74
2024/03/13 03:59:41;;;;;;;123.20;85.20;;;;;;;10.65;63.67;100364.20;111035;1270;21793;-75
2024/03/13 04:02:10;;;;;;;120.80;85.80;;;;;;;10.67;63.77;100361.27;111488;1268;22372;-75
2024/03/13 04:04:39;;;;;;;130.00;92.00;;;;;;;10.72;63.65;100367.81;111072;1269;21966;-74
2024/03/13 04:07:11;;;;;;;122.80;90.20;;;;;;;10.65;63.80;100369.52;111175;1269;21784;-74
2024/03/13 04:09:40;;;;;;;;;;;;;;;10.66;63.83;100368.58;111355;1269;21896;-74
2024/03/13 04:12:09;;;;;;;128.50;87.80;;;;;;;10.48;64.39;100371.02;111408;1269;21882;-75
2024/03/13 04:14:39;;;;;;;136.70;92.40;;;;;;;10.57;64.26;100371.86;111157;1269;21903;-75
2024/03/13 04:17:13;;;;;;;126.20;90.70;;;;;;;10.61;63.89;100374.20;111405;1269;22459;-74
2024/03/13 04:19:43;;;;;;;136.60;90.30;;;;;;;10.60;63.54;100375.66;110764;1275;21945;-75
2024/03/13 04:22:13;;;;;;;131.30;92.20;;;;;;;10.57;63.60;100374.83;110640;1275;21894;-76
2024/03/13 04:24:43;;;;;;;133.30;90.70;;;;;;;10.56;64.04;100376.46;110702;1275;21914;-74
2024/03/13 04:27:13;;;;;;;141.30;92.30;;;;;;;10.58;63.97;100379.65;110605;1277;22295;-75
2024/03/13 04:29:42;;;;;;;134.70;91.00;;;;;;;10.61;63.70;100377.35;110451;1278;21859;-73
2024/03/13 04:32:20;;;;;;;126.80;88.70;;;;;;;10.60;63.85;100377.97;110631;1277;21910;-73
2024/03/13 04:34:50;;;;;;;133.00;90.10;;;;;;;10.61;63.86;100379.14;110476;1277;22324;-74
2024/03/13 04:37:23;;;;;;;134.40;90.80;;;;;;;10.64;63.94;100378.95;110569;1277;22507;-73
2024/03/13 04:39:52;;;;;;;130.00;88.70;;;;;;;10.61;63.57;100382.48;110454;1277;21902;-73
2024/03/13 04:42:22;;;;;;;139.70;93.40;;;;;;;10.58;64.27;100383.77;110599;1278;21880;-73
2024/03/13 04:44:52;;;;;;;140.50;99.60;;;;;;;10.59;64.45;100385.27;110838;1269;21733;-73
2024/03/13 04:47:21;;;;;;;137.80;90.90;;;;;;;10.63;64.44;100389.38;111556;1269;21930;-73
2024/03/13 04:49:50;;;;;;;125.90;87.30;;;;;;;10.66;64.25;100392.30;111339;1268;21909;-74
2024/03/13 04:52:21;;;;;;;134.00;88.40;;;;;;;10.69;64.12;100393.34;111055;1269;21935;-76
2024/03/13 04:54:51;;;;;;;129.30;93.90;;;;;;;10.70;63.92;100392.08;110779;1274;22233;-73
2024/03/13 04:57:21;;;;;;;133.60;97.90;;;;;;;10.69;63.96;100393.15;110770;1274;21937;-77
2024/03/13 04:59:50;;;;;;;132.00;91.40;;;;;;;10.69;63.77;100395.78;110718;1274;21807;-76
2024/03/13 05:02:19;;;;;;;121.40;86.60;;;;;;;10.68;64.18;100397.31;110461;1267;21864;-76
2024/03/13 05:04:49;;;;;;;124.00;85.60;;;;;;;10.66;64.19;100400.42;110381;1279;22344;-76
2024/03/13 05:07:18;;;;;;;121.10;87.90;;;;;;;10.66;64.16;100404.31;110466;1279;22338;-76
2024/03/13 05:09:49;;;;;;;117.40;84.10;;;;;;;10.67;63.92;100404.08;110370;1279;21839;-76
2024/03/13 05:12:18;;;;;;;90.40;72.60;;;;;;;10.69;63.89;100405.52;110164;1280;22307;-75
2024/03/13 05:14:48;;;;;;;105.10;79.40;;;;;;;10.69;63.50;100406.75;109982;1285;21863;-75
2024/03/13 05:17:17;;;;;;;118.40;84.30;;;;;;;10.70;63.53;100407.39;109936;1286;21856;-74
2024/03/13 05:19:46;;;;;;;128.30;87.70;;;;;;;10.72;63.37;100410.23;110030;1281;22346;-74
2024/03/13 05:22:16;;;;;;;120.20;86.30;;;;;;;10.71;63.43;100415.02;110090;1281;21819;-75
2024/03/13 05:24:48;;;;;;;125.50;86.30;;;;;;;10.69;63.79;100417.84;110138;1281;21917;-73
2024/03/13 05:27:17;;;;;;;128.30;88.90;;;;;;;10.68;64.00;100424.10;110215;1281;22289;-74
2024/03/13 05:29:47;;;;;;;175.00;134.60;;;;;;;10.68;64.00;100424.06;110284;1276;22255;-74
2024/03/13 05:32:19;;;;;;;151.60;108.20;;;;;;;10.66;63.95;100424.77;110894;1270;21803;-74
2024/03/13 05:34:49;;;;;;;137.70;96.80;;;;;;;10.66;64.16;100425.23;111555;1270;22293;-74
2024/03/13 05:37:18;;;;;;;120.50;87.20;;;;;;;10.67;63.81;100423.06;111438;1269;21813;-75
2024/03/13 05:39:51;;;;;;;118.50;84.70;;;;;;;10.68;63.73;100420.91;110611;1275;21888;-75
2024/03/13 05:42:22;;;;;;;118.00;84.90;;;;;;;10.67;64.10;100422.52;110592;1275;22263;-74
2024/03/13 05:44:51;;;;;;;120.50;85.70;;;;;;;10.69;63.84;100426.64;110659;1275;21830;-74
2024/03/13 05:47:21;;;;;;;111.40;81.20;;;;;;;10.65;63.69;100431.33;110562;1275;21950;-74
2024/03/13 05:49:50;;;;;;;109.00;77.70;;;;;;;10.61;63.84;100430.52;110606;1275;21926;-74
2024/03/13 05:52:19;;;;;;;118.70;81.90;;;;;;;10.65;63.86;100433.06;110498;1275;21899;-74
2024/03/13 05:54:49;;;;;;;109.90;77.70;;;;;;;10.68;63.48;100431.60;110572;1275;22337;-75
2024/03/13 05:57:24;;;;;;;115.10;81.90;;;;;;;10.68;63.32;100435.89;110812;1270;21830;-74
2024/03/13 05:59:53;;;;;;;115.10;83.70;;;;;;;10.67;63.42;100438.39;111057;1270;21967;-75
2024/03/13 06:02:23;;;;;;;121.60;82.30;;;;;;;10.68;63.38;100444.84;111341;1270;21794;-74
2024/03/13 06:05:02;;;;;;;108.80;79.30;;;;;;;10.61;63.37;100442.84;111575;1268;21915;-73
2024/03/13 06:07:32;;;;;;;119.80;86.40;;;;;;;10.44;63.59;100444.21;111377;1262;21904;-73
2024/03/13 06:10:03;;;;;;;112.90;83.20;;;;;;;10.47;63.85;100443.10;111053;1258;21911;-74
2024/03/13 06:12:49;;;;;;;105.60;78.30;;;;;;;10.58;63.58;100442.58;111076;1269;22202;-72
2024/03/13 06:15:21;;;;;;;109.60;80.40;;;;;;;10.58;63.17;100447.80;111677;1268;21797;-72
2024/03/13 06:17:50;;;;;;;106.40;78.70;;;;;;;10.66;63.27;100447.26;111345;1267;21913;-72
2024/03/13 06:20:20;;;;;;;101.90;76.60;;;;;;;10.73;63.01;100449.11;110701;1274;21821;-72
2024/03/13 06:22:51;;;;;;;99.00;76.70;;;;;;;10.77;62.85;100450.40;110727;1274;21806;-72
2024/03/13 06:25:23;;;;;;;96.60;73.30;;;;;;;10.79;62.58;100450.59;110678;1274;21964;-71
2024/03/13 06:28:00;;;;;;;132.10;103.00;;;;;;;10.82;62.43;100449.30;110627;1276;21852;-72
2024/03/13 06:30:31;;;;;;;100.70;79.00;;;;;;;10.86;62.42;100452.36;110582;1276;21844;-73
2024/03/13 06:33:00;;;;;;;95.70;77.70;;;;;;;10.91;62.11;100451.35;110555;1276;22418;-72
2024/03/13 06:35:30;;;;;;;113.50;88.20;;;;;;;10.82;61.66;100456.89;110648;1276;21814;-74
2024/03/13 06:38:00;;;;;;;134.60;101.90;;;;;;;10.69;61.94;100457.45;110647;1270;22362;-73
2024/03/13 06:40:29;;;;;;;135.00;105.70;;;;;;;10.71;62.06;100457.33;110798;1274;21804;-73
2024/03/13 06:42:58;;;;;;;120.80;99.20;;;;;;;10.74;62.52;100455.70;110728;1274;21834;-73
2024/03/13 06:45:28;;;;;;;111.70;90.70;;;;;;;10.70;62.43;100458.12;110704;1274;21816;-73
2024/03/13 06:48:08;;;;;;;114.80;88.40;;;;;;;10.63;62.84;100461.40;110906;1274;21836;-73
2024/03/13 06:50:37;;;;;;;150.40;126.80;;;;;;;10.74;62.95;100466.08;110766;1274;21823;-75
2024/03/13 06:53:06;;;;;;;167.60;113.00;;;;;;;10.83;62.47;100465.65;110730;1274;21980;-73
2024/03/13 06:55:35;;;;;;;107.60;80.70;;;;;;;10.96;62.55;100461.55;110921;1274;21862;-73
2024/03/13 06:58:05;;;;;;;101.10;79.30;;;;;;;11.17;62.24;100459.93;110980;1270;21878;-72
2024/03/13 07:00:34;;;;;;;95.30;75.00;;;;;;;11.34;61.42;100460.83;111018;1271;21896;-74
2024/03/13 07:03:03;;;;;;;95.50;75.30;;;;;;;11.42;60.79;100459.91;111014;1271;21841;-74
2024/03/13 07:05:33;;;;;;;90.40;71.00;;;;;;;11.46;60.53;100466.67;111054;1271;21830;-73
2024/03/13 07:08:02;;;;;;;94.60;70.90;;;;;;;11.50;60.24;100473.96;111003;1270;21969;-72
2024/03/13 07:10:32;;;;;;;96.90;76.40;;;;;;;11.56;60.04;100481.27;110968;1270;21863;-73
2024/03/13 07:13:03;;;;;;;88.00;73.00;;;;;;;11.61;59.66;100493.66;110858;1271;21804;-73
2024/03/13 07:15:34;;;;;;;86.70;72.70;;;;;;;11.63;59.17;100501.61;110996;1270;21803;-70
2024/03/13 07:18:04;;;;;;;;;;;;;;;11.62;59.63;100501.52;111073;1270;21908;-73
2024/03/13 07:20:33;;;;;;;91.00;70.20;;;;;;;11.49;60.26;100500.48;111074;1270;22347;-73
2024/03/13 07:23:03;;;;;;;93.20;73.10;;;;;;;11.61;59.97;100502.10;110738;1273;21913;-72
2024/03/13 07:25:32;;;;;;;94.50;73.90;;;;;;;11.70;59.83;100504.77;110771;1274;22499;-74
2024/03/13 07:28:02;;;;;;;94.10;72.30;;;;;;;11.75;59.48;100506.39;110985;1274;21869;-73
2024/03/13 07:30:31;;;;;;;91.50;73.50;;;;;;;11.66;59.26;100510.73;110762;1274;21853;-72
2024/03/13 07:33:01;;;;;;;85.90;71.00;;;;;;;11.59;59.43;100507.30;110367;1278;21837;-73
2024/03/13 07:35:30;;;;;;;94.70;75.80;;;;;;;11.59;59.54;100509.97;110467;1278;21780;-73
2024/03/13 07:37:59;;;;;;;85.30;70.10;;;;;;;11.65;59.74;100508.68;110627;1274;21940;-72
2024/03/13 07:40:32;;;;;;;88.50;72.20;;;;;;;11.69;59.25;100511.36;110594;1275;21827;-74
2024/03/13 07:43:01;;;;;;;100.00;76.30;;;;;;;11.65;59.23;100510.09;110637;1275;22316;-73
2024/03/13 07:45:31;;;;;;;104.20;79.60;;;;;;;11.65;59.17;100508.49;110719;1275;21831;-71
2024/03/13 07:48:00;;;;;;;101.60;79.50;;;;;;;11.72;59.41;100514.13;110717;1275;22408;-73
2024/03/13 07:50:29;;;;;;;103.80;83.10;;;;;;;11.78;59.36;100522.33;110761;1271;21865;-72
2024/03/13 07:52:58;;;;;;;102.10;80.30;;;;;;;11.76;59.04;100514.40;111293;1270;22413;-74
2024/03/13 07:55:28;;;;;;;105.60;78.80;;;;;;;11.76;59.32;100512.30;111035;1270;21813;-74
2024/03/13 07:57:58;;;;;;;104.50;78.10;;;;;;;11.78;59.34;100516.02;110693;1274;22417;-73
2024/03/13 08:00:27;;;;;;;99.90;78.90;;;;;;;11.74;59.04;100516.70;110694;1274;21891;-73
2024/03/13 08:02:57;;;;;;;98.30;79.00;;;;;;;11.67;59.03;100518.05;110463;1277;21829;-72
2024/03/13 08:05:41;;;;;;;124.70;95.80;;;;;;;11.69;59.59;100520.22;110593;1277;21911;-71
2024/03/13 08:08:16;;;;;;;107.70;86.80;;;;;;;11.84;59.58;100522.47;110569;1278;21846;-72
2024/03/13 08:11:04;;;;;;;105.40;79.50;;;;;;;11.92;59.07;100520.14;110446;1278;21784;-70
2024/03/13 08:13:54;;;;;;;101.20;79.30;;;;;;;11.98;58.87;100521.88;110394;1277;219566;-72
2024/03/13 08:16:42;;;;;;;100.20;80.20;;;;;;;12.01;58.44;100520.17;110651;1275;21837;-74
2024/03/13 08:19:29;;;;;;;98.40;79.00;;;;;;;12.07;58.80;100520.45;110670;1275;21867;-74
2024/03/13 08:22:15;;;;;;;98.40;75.80;;;;;;;12.15;58.05;100524.33;111314;1270;21914;-74
2024/03/13 08:25:02;;;;;;;99.50;80.20;;;;;;;12.13;57.97;100524.94;111108;1270;21824;-76
2024/03/13 08:27:49;;;;;;;106.50;84.60;;;;;;;12.17;58.37;100525.55;111078;1270;21800;-77
2024/03/13 08:30:36;;;;;;;93.70;77.90;;;;;;;12.25;57.55;100528.52;111106;1269;21850;-76
2024/03/13 08:33:22;;;;;;;97.20;79.00;;;;;;;12.29;57.06;100527.63;111541;1270;21877;-76
2024/03/13 08:36:08;;;;;;;101.00;81.70;;;;;;;12.39;57.49;100531.52;111545;1268;21834;-76
2024/03/13 08:38:55;;;;;;;101.60;82.70;;;;;;;12.37;56.65;100529.67;111121;1270;22324;-76
2024/03/13 08:41:43;;;;;;;100.20;82.40;;;;;;;12.26;56.68;100529.66;111341;1270;21838;-77
2024/03/13 08:44:29;;;;;;;97.40;82.80;;;;;;;12.39;57.58;100528.28;111077;1270;21912;-76
2024/03/13 08:47:20;;;;;;;95.80;79.00;;;;;;;12.65;56.54;100533.07;111057;1270;21827;-78
2024/03/13 08:50:07;;;;;;;99.20;82.80;;;;;;;12.87;56.28;100531.22;111301;1270;21736;-78
2024/03/13 08:52:57;;;;;;;98.50;80.90;;;;;;;13.25;55.73;100535.02;111082;1270;21796;-78
2024/03/13 08:55:44;;;;;;;97.50;81.60;;;;;;;13.33;54.92;100542.52;111105;1270;21825;-78
2024/03/13 08:58:55;;;;;;;102.80;83.60;;;;;;;13.23;54.67;100544.57;111195;1270;21814;-79
2024/03/13 09:02:09;;;;;;;108.10;83.30;;;;;;;13.10;54.71;100544.29;111340;1270;21796;-84
2024/03/13 09:04:56;;;;;;;98.20;81.30;;;;;;;12.97;55.26;100546.14;111420;1269;21727;-77
2024/03/13 09:07:43;;;;;;;88.90;77.10;;;;;;;13.01;55.77;100544.09;111122;1270;22657;-77
2024/03/13 09:10:18;;;;;;;94.30;78.70;;;;;;;13.10;55.45;100542.70;110620;1276;21915;-76
2024/03/13 09:12:50;;;;;;;90.10;79.90;;;;;;;13.11;54.94;100550.91;110531;1275;21857;-78
2024/03/13 09:15:23;;;;;;;92.80;82.50;;;;;;;13.14;55.02;100548.75;110599;1275;22251;-77
2024/03/13 09:17:53;;;;;;;96.60;80.30;;;;;;;13.19;55.22;100545.39;110625;1275;21941;-77
2024/03/13 09:20:25;;;;;;;96.00;82.10;;;;;;;13.27;54.90;100540.54;110639;1274;21831;-77
2024/03/13 09:22:55;;;;;;;98.00;84.30;;;;;;;13.36;54.98;100544.73;110608;1276;21837;-77
2024/03/13 09:25:24;;;;;;;104.40;84.80;;;;;;;13.45;54.38;100548.63;110143;1280;21838;-76
2024/03/13 09:27:55;;;;;;;106.40;91.60;;;;;;;13.58;54.40;100547.98;110155;1276;21860;-77
2024/03/13 09:30:24;;;;;;;104.10;92.40;;;;;;;13.71;54.18;100551.05;110582;1276;21838;-76
2024/03/13 09:32:54;;;;;;;100.50;88.00;;;;;;;13.82;53.72;100553.33;110687;1276;21919;-76
2024/03/13 09:35:23;;;;;;;96.70;86.00;;;;;;;13.84;53.26;100553.36;110539;1276;21928;-76
2024/03/13 09:37:52;;;;;;;92.30;82.10;;;;;;;13.86;53.34;100556.17;110471;1276;21834;-76
2024/03/13 09:40:22;;;;;;;91.80;81.90;;;;;;;13.89;53.50;100559.48;110421;1276;21829;-76
2024/03/13 09:42:54;;;;;;;94.90;81.40;;;;;;;14.00;53.37;100566.60;110732;1270;21870;-76
2024/03/13 09:45:25;;;;;;;86.90;77.70;;;;;;;14.13;52.96;100566.06;111045;1267;21865;-76
2024/03/13 09:47:55;;;;;;;100.10;89.90;;;;;;;14.26;52.40;100568.33;111513;1270;21820;-76
2024/03/13 09:50:25;;;;;;;126.80;113.50;;;;;;;14.37;52.09;100568.27;110882;1264;21880;-76
2024/03/13 09:52:58;;;;;;;88.20;78.80;;;;;;;14.38;52.19;100566.96;111076;1270;21746;-76
2024/03/13 09:55:27;;;;;;;86.70;77.70;;;;;;;14.34;51.99;100566.79;110576;1274;21820;-76
2024/03/13 09:57:57;;;;;;;86.50;77.10;;;;;;;14.31;51.94;100570.77;110836;1271;21913;-77
2024/03/13 10:00:26;;;;;;;81.60;72.80;;;;;;;14.29;52.05;100575.02;110917;1274;22302;-77
2024/03/13 10:03:07;;;;;;;88.60;78.90;;;;;;;14.21;52.23;100576.17;110781;1274;22414;-76
2024/03/13 10:05:36;;;;;;;81.50;73.10;;;;;;;14.18;52.26;100577.88;110931;1274;21863;-76
2024/03/13 10:08:08;;;;;;;84.70;75.90;;;;;;;14.14;52.43;100579.61;110717;1274;21805;-77
2024/03/13 10:10:38;;;;;;;86.30;77.30;;;;;;;14.16;52.70;100579.46;110755;1274;22264;-76
2024/03/13 10:13:13;;;;;;;84.60;73.00;;;;;;;14.24;52.47;100578.98;110953;1270;21896;-75
2024/03/13 10:15:45;;;;;;;78.80;70.50;;;;;;;14.28;52.63;100579.70;111044;1270;21825;-76
2024/03/13 10:18:20;;;;;;;80.70;72.10;;;;;;;14.36;52.37;100575.43;111119;1270;22325;-75
2024/03/13 10:21:13;;;;;;;79.60;71.30;;;;;;;14.50;51.90;100572.80;111032;1270;22380;-75
2024/03/13 10:23:47;;;;;;;79.10;70.60;;;;;;;14.57;51.95;100571.63;110662;1276;21907;-75
2024/03/13 10:26:20;;;;;;;86.70;77.60;;;;;;;14.66;51.87;100569.67;110438;1276;21828;-75
2024/03/13 10:28:50;;;;;;;83.50;74.40;;;;;;;14.77;51.76;100572.29;110469;1276;21901;-77
2024/03/13 10:31:21;;;;;;;80.00;71.30;;;;;;;14.81;51.30;100572.07;110450;1276;21828;-76
2024/03/13 10:33:52;;;;;;;86.40;75.10;;;;;;;14.85;51.25;100572.98;110520;1276;21928;-77
2024/03/13 10:36:22;;;;;;;85.90;72.10;;;;;;;14.87;51.11;100571.80;110423;1276;21857;-77
2024/03/13 10:38:53;;;;;;;81.20;72.50;;;;;;;14.93;51.43;100576.77;110475;1276;21773;-75
2024/03/13 10:41:22;;;;;;;82.00;73.50;;;;;;;14.95;51.04;100577.33;110666;1270;21543;-75
2024/03/13 10:43:51;;;;;;;79.20;70.90;;;;;;;14.91;51.02;100576.19;110985;1270;21885;-74
2024/03/13 10:46:21;;;;;;;79.10;71.20;;;;;;;14.92;50.94;100574.73;111059;1270;21817;-74
2024/03/13 10:48:52;;;;;;;81.60;73.00;;;;;;;14.85;50.54;100571.27;111377;1270;21820;-76
2024/03/13 10:51:23;;;;;;;;;;;;;;;14.78;50.66;100569.21;111421;1270;22359;-75
2024/03/13 10:53:52;;;;;;;83.00;74.50;;;;;;;14.58;50.93;100569.42;111038;1270;21855;-74
2024/03/13 10:56:21;;;;;;;83.50;74.40;;;;;;;14.50;51.27;100566.70;111045;1270;21798;-76
2024/03/13 10:58:51;;;;;;;82.80;74.20;;;;;;;14.50;51.57;100563.90;111296;1270;21890;-73
2024/03/13 11:01:21;;;;;;;83.00;73.50;;;;;;;14.49;51.63;100566.06;111336;1261;21871;-72
2024/03/13 11:20:14;;;;;;;73.30;65.60;;;;;;;14.20;51.94;100564.42;99892;1283;990961;-64
2024/03/13 11:22:50;;;;;;;76.10;68.10;;;;;;;14.20;51.97;100557.63;109974;1287;21880;-63
2024/03/13 11:25:22;;;;;;;75.10;66.90;;;;;;;14.26;52.23;100563.34;109945;1287;22263;-70
2024/03/13 11:27:56;;;;;;;73.00;65.80;;;;;;;14.30;51.84;100562.54;109976;1287;21898;-63
2024/03/13 11:30:28;;;;;;;75.40;67.40;;;;;;;14.22;52.55;100562.82;109971;1287;21883;-62
2024/03/13 11:32:59;;;;;;;72.70;64.90;;;;;;;14.27;52.52;100559.90;109884;1287;22318;-65
2024/03/13 11:41:21;;;;;;;72.10;64.10;;;;;;;16.63;50.38;100556.64;108035;1280;544190;-68
2024/03/13 11:43:53;;;;;;;79.20;71.20;;;;;;;15.99;48.76;100550.10;110223;1266;21967;-69
2024/03/13 11:46:33;;;;;;;;;;;;;;;14.99;50.39;100555.98;110167;1266;23019;-68
2024/03/13 11:49:03;;;;;;;76.50;64.00;;;;;;;14.19;51.87;100553.64;110176;1266;21954;-68
2024/03/13 11:51:36;;;;;;;71.40;64.00;;;;;;;13.79;53.25;100550.69;110102;1266;23104;-68
2024/03/13 11:54:12;;;;;;;72.70;65.00;;;;;;;13.55;53.92;100544.86;110050;1264;190170;-69
2024/03/13 11:56:43;;;;;;;75.60;67.60;;;;;;;13.34;54.53;100546.48;110348;1264;23113;-70
2024/03/13 11:59:16;;;;;;;76.30;68.40;;;;;;;13.15;55.07;100547.31;110089;1264;23700;-69
2024/03/13 12:01:45;;;;;;;77.90;70.10;;;;;;;12.98;55.87;100544.51;110317;1264;21963;-70
2024/03/13 12:04:14;;;;;;;75.30;67.70;;;;;;;12.90;56.41;100544.77;110302;1264;23835;-70
2024/03/13 12:06:44;;;;;;;86.50;77.20;;;;;;;12.85;56.61;100546.37;110401;1264;21969;-70